createdAt,value
2019-02-18T09:37:41.648Z,1011.98
2019-02-18T09:38:41.621Z,1012.05
2019-02-18T09:39:41.567Z,1012.02
2019-02-18T09:40:44.668Z,1011.97
2019-02-18T09:41:42.666Z,1012.02
2019-02-18T09:42:41.575Z,1011.97
2019-02-18T09:43:41.521Z,1011.89
2019-02-18T09:44:41.512Z,1011.86
2019-02-18T09:45:41.554Z,1011.84
2019-02-18T09:46:41.513Z,1011.89
2019-02-18T09:47:41.481Z,1011.92
2019-02-18T09:48:41.473Z,1011.93
2019-02-18T09:49:41.591Z,1011.91
2019-02-18T09:50:41.452Z,1011.90
2019-02-18T09:51:41.466Z,1011.93
2019-02-18T09:52:41.444Z,1011.87
2019-02-18T09:53:41.424Z,1011.91
2019-02-18T09:54:41.420Z,1011.87
2019-02-18T09:55:41.434Z,1011.85
2019-02-18T09:56:41.390Z,1011.83
2019-02-18T09:57:41.410Z,1011.85
2019-02-18T09:58:41.665Z,1011.86
2019-02-18T09:59:41.809Z,1011.77
2019-02-18T10:00:41.587Z,1011.75
2019-02-18T10:01:43.227Z,1011.80
2019-02-18T10:02:41.340Z,1011.78
2019-02-18T10:03:41.373Z,1011.79
2019-02-18T10:04:41.347Z,1011.75
2019-02-18T10:05:41.322Z,1011.76
2019-02-18T10:06:41.266Z,1011.76
2019-02-18T10:07:41.363Z,1011.77
2019-02-18T10:08:41.378Z,1011.77
2019-02-18T10:09:41.265Z,1011.76
2019-02-18T10:10:42.184Z,1011.70
2019-02-18T10:11:41.308Z,1011.75
2019-02-18T10:12:41.266Z,1011.75
2019-02-18T10:13:41.195Z,1011.66
2019-02-18T10:14:41.263Z,1011.69
2019-02-18T10:15:42.317Z,1011.64
2019-02-18T10:16:41.395Z,1011.69
2019-02-18T10:17:41.309Z,1011.66
2019-02-18T10:18:41.158Z,1011.64
2019-02-18T10:19:42.978Z,1011.65
2019-02-18T10:20:41.470Z,1011.68
2019-02-18T10:21:41.311Z,1011.65
2019-02-18T10:22:41.101Z,1011.58
2019-02-18T10:23:41.101Z,1011.65
2019-02-18T10:24:50.455Z,1011.57
2019-02-18T10:25:42.083Z,1011.57
2019-02-18T10:26:41.047Z,1011.60
2019-02-18T10:27:41.287Z,1011.58
2019-02-18T10:28:41.286Z,1011.56
2019-02-18T10:29:41.413Z,1011.56
2019-02-18T10:30:41.350Z,1011.52
2019-02-18T10:31:41.842Z,1011.54
2019-02-18T10:32:41.424Z,1011.50
2019-02-18T10:33:40.958Z,1011.57
2019-02-18T10:34:41.028Z,1011.49
2019-02-18T10:35:41.316Z,1011.45
2019-02-18T10:36:40.931Z,1011.50
2019-02-18T10:37:40.967Z,1011.47
2019-02-18T10:38:40.967Z,1011.50
2019-02-18T10:39:40.899Z,1011.43
2019-02-18T10:40:40.881Z,1011.49
2019-02-18T10:41:40.901Z,1011.46
2019-02-18T10:42:40.860Z,1011.46
2019-02-18T10:43:40.864Z,1011.46
2019-02-18T10:44:40.939Z,1011.42
2019-02-18T10:45:40.827Z,1011.38
2019-02-18T10:46:40.890Z,1011.29
2019-02-18T10:47:40.851Z,1011.34
2019-02-18T10:48:40.905Z,1011.29
2019-02-18T10:49:40.782Z,1011.31
2019-02-18T10:50:40.908Z,1011.39
2019-02-18T10:51:40.772Z,1011.30
2019-02-18T10:52:40.812Z,1011.24
2019-02-18T10:53:40.748Z,1011.30
2019-02-18T10:54:40.717Z,1011.28
2019-02-18T10:55:40.771Z,1011.30
2019-02-18T10:56:40.722Z,1011.26
2019-02-18T10:57:40.680Z,1011.29
2019-02-18T10:58:40.720Z,1011.23
2019-02-18T10:59:40.664Z,1011.24
2019-02-18T11:00:40.679Z,1011.14
2019-02-18T11:01:40.684Z,1011.14
2019-02-18T11:02:40.669Z,1011.08
2019-02-18T11:03:40.615Z,1010.98
2019-02-18T11:04:40.623Z,1011.03
2019-02-18T11:05:40.766Z,1011.02
2019-02-18T11:06:40.657Z,1011.04
2019-02-18T11:07:41.738Z,1011.01
2019-02-18T11:08:40.569Z,1010.97
2019-02-18T11:09:40.586Z,1010.96
2019-02-18T11:10:40.771Z,1010.98
2019-02-18T11:11:40.768Z,1010.99
2019-02-18T11:12:40.653Z,1010.97
2019-02-18T11:13:40.565Z,1010.93
2019-02-18T11:14:40.609Z,1010.92
2019-02-18T11:15:40.592Z,1010.89
2019-02-18T11:16:41.097Z,1010.90
2019-02-18T11:17:40.537Z,1010.90
2019-02-18T11:18:41.898Z,1010.83
2019-02-18T11:19:41.948Z,1010.80
2019-02-18T11:20:41.277Z,1010.77
2019-02-18T11:21:40.559Z,1010.77
2019-02-18T11:22:41.333Z,1010.67
2019-02-18T11:23:41.216Z,1010.72
2019-02-18T11:24:41.783Z,1010.75
2019-02-18T11:25:41.773Z,1010.74
2019-02-18T11:26:41.447Z,1010.71
2019-02-18T11:27:40.599Z,1010.70
2019-02-18T11:28:40.438Z,1010.66
2019-02-18T11:29:40.451Z,1010.67
2019-02-18T11:30:41.677Z,1010.64
2019-02-18T11:31:40.758Z,1010.64
2019-02-18T11:32:41.099Z,1010.69
2019-02-18T11:33:40.322Z,1010.67
2019-02-18T11:34:40.374Z,1010.70
2019-02-18T11:35:40.311Z,1010.75
2019-02-18T11:36:40.281Z,1010.70
2019-02-18T11:37:40.506Z,1010.69
2019-02-18T11:38:40.290Z,1010.70
2019-02-18T11:39:41.826Z,1010.69
2019-02-18T11:40:40.309Z,1010.67
2019-02-18T11:41:40.201Z,1010.69
2019-02-18T11:42:40.314Z,1010.65
2019-02-18T11:43:40.197Z,1010.64
2019-02-18T11:44:40.167Z,1010.63
2019-02-18T11:45:40.144Z,1010.55
2019-02-18T11:46:40.150Z,1010.57
2019-02-18T11:47:40.119Z,1010.56
2019-02-18T11:48:40.211Z,1010.51
2019-02-18T11:49:40.196Z,1010.41
2019-02-18T11:50:40.809Z,1010.41
2019-02-18T11:51:40.144Z,1010.38
2019-02-18T11:52:40.191Z,1010.44
2019-02-18T11:53:40.117Z,1010.42
2019-02-18T11:54:40.072Z,1010.47
2019-02-18T11:55:40.476Z,1010.39
2019-02-18T11:56:40.046Z,1010.43
2019-02-18T11:57:40.018Z,1010.39
2019-02-18T11:58:40.488Z,1010.38
2019-02-18T11:59:41.028Z,1010.36
2019-02-18T12:00:40.151Z,1010.28
2019-02-18T12:01:39.965Z,1010.28
2019-02-18T12:02:40.003Z,1010.29
2019-02-18T12:03:39.951Z,1010.29
2019-02-18T12:04:40.003Z,1010.31
2019-02-18T12:05:39.938Z,1010.25
2019-02-18T12:06:44.472Z,1010.27
2019-02-18T12:07:40.043Z,1010.24
2019-02-18T12:08:48.238Z,1010.28
2019-02-18T12:09:40.171Z,1010.23
2019-02-18T12:10:40.059Z,1010.24
2019-02-18T12:11:39.897Z,1010.24
2019-02-18T12:12:39.837Z,1010.16
2019-02-18T12:13:39.830Z,1010.15
2019-02-18T12:14:39.879Z,1010.12
2019-02-18T12:15:39.799Z,1010.08
2019-02-18T12:16:39.965Z,1010.06
2019-02-18T12:17:39.775Z,1009.99
2019-02-18T12:18:39.825Z,1010.03
2019-02-18T12:19:39.773Z,1010.00
2019-02-18T12:20:39.747Z,1010.00
2019-02-18T12:21:39.834Z,1010.00
2019-02-18T12:22:39.772Z,1010.01
2019-02-18T12:23:39.768Z,1009.96
2019-02-18T12:24:39.991Z,1009.94
2019-02-18T12:25:40.310Z,1009.87
2019-02-18T12:26:41.343Z,1009.87
2019-02-18T12:27:39.699Z,1009.83
2019-02-18T12:28:39.655Z,1009.82
2019-02-18T12:29:41.377Z,1009.79
2019-02-18T12:30:40.355Z,1009.80
2019-02-18T12:31:39.656Z,1009.76
2019-02-18T12:32:39.622Z,1009.70
2019-02-18T12:33:39.601Z,1009.74
2019-02-18T12:34:40.644Z,1009.69
2019-02-18T12:35:39.903Z,1009.66
2019-02-18T12:36:42.484Z,1009.67
2019-02-18T12:37:39.556Z,1009.61
2019-02-18T12:38:41.060Z,1009.65
2019-02-18T12:39:39.554Z,1009.60
2019-02-18T12:40:39.610Z,1009.55
2019-02-18T12:41:48.358Z,1009.50
2019-02-18T12:42:42.761Z,1009.47
2019-02-18T12:43:39.719Z,1009.42
2019-02-18T12:44:39.617Z,1009.38
2019-02-18T12:45:40.363Z,1009.39
2019-02-18T12:46:40.819Z,1009.32
2019-02-18T12:47:39.467Z,1009.35
2019-02-18T12:48:39.454Z,1009.36
2019-02-18T12:49:39.419Z,1009.31
2019-02-18T12:50:39.428Z,1009.28
2019-02-18T12:51:39.408Z,1009.29
2019-02-18T12:52:39.838Z,1009.24
2019-02-18T12:53:39.401Z,1009.14
2019-02-18T12:54:39.533Z,1009.21
2019-02-18T12:55:39.383Z,1009.22
2019-02-18T12:56:39.347Z,1009.17
2019-02-18T12:57:39.337Z,1009.11
2019-02-18T12:58:39.831Z,1009.09
2019-02-18T12:59:39.397Z,1009.05
2019-02-18T13:00:39.305Z,1009.11
2019-02-18T13:01:39.319Z,1009.09
2019-02-18T13:02:44.259Z,1009.06
2019-02-18T13:03:41.335Z,1009.05
2019-02-18T13:04:39.306Z,1009.01
2019-02-18T13:05:39.255Z,1009.00
2019-02-18T13:06:39.815Z,1008.96
2019-02-18T13:07:40.860Z,1008.99
2019-02-18T13:08:40.835Z,1008.89
2019-02-18T13:09:39.245Z,1008.95
2019-02-18T13:10:39.279Z,1008.83
2019-02-18T13:11:39.180Z,1008.81
2019-02-18T13:12:39.219Z,1008.83
2019-02-18T13:13:39.222Z,1008.88
2019-02-18T13:14:39.232Z,1008.88
2019-02-18T13:15:39.129Z,1008.88
2019-02-18T13:16:39.175Z,1008.90
2019-02-18T13:17:39.110Z,1008.88
2019-02-18T13:18:44.967Z,1008.90
2019-02-18T13:19:39.182Z,1008.81
2019-02-18T13:20:39.196Z,1008.80
2019-02-18T13:21:39.101Z,1008.82
2019-02-18T13:22:39.160Z,1008.82
2019-02-18T13:23:39.069Z,1008.73
2019-02-18T13:24:39.118Z,1008.71
2019-02-18T13:25:41.933Z,1008.63
2019-02-18T13:26:40.329Z,1008.70
2019-02-18T13:27:39.002Z,1008.62
2019-02-18T13:28:38.996Z,1008.56
2019-02-18T13:29:38.974Z,1008.55
2019-02-18T13:30:38.963Z,1008.58
2019-02-18T13:31:38.950Z,1008.56
2019-02-18T13:32:38.989Z,1008.53
2019-02-18T13:33:38.935Z,1008.50
2019-02-18T13:34:39.059Z,1008.51
2019-02-18T13:35:38.921Z,1008.50
2019-02-18T13:36:38.892Z,1008.55
2019-02-18T13:37:38.892Z,1008.49
2019-02-18T13:38:38.876Z,1008.50
2019-02-18T13:39:38.858Z,1008.47
2019-02-18T13:40:38.896Z,1008.57
2019-02-18T13:41:38.850Z,1008.48
2019-02-18T13:42:38.831Z,1008.51
2019-02-18T13:43:38.814Z,1008.43
2019-02-18T13:44:38.804Z,1008.51
2019-02-18T13:45:38.842Z,1008.56
2019-02-18T13:46:38.777Z,1008.56
2019-02-18T13:47:38.769Z,1008.59
2019-02-18T13:48:38.768Z,1008.64
2019-02-18T13:49:38.753Z,1008.64
2019-02-18T13:50:38.777Z,1008.55
2019-02-18T13:51:38.733Z,1008.53
2019-02-18T13:52:38.801Z,1008.55
2019-02-18T13:53:38.733Z,1008.53
2019-02-18T13:54:38.723Z,1008.49
2019-02-18T13:55:38.682Z,1008.51
2019-02-18T13:56:38.677Z,1008.52
2019-02-18T13:57:38.662Z,1008.49
2019-02-18T13:58:38.704Z,1008.45
2019-02-18T13:59:38.635Z,1008.36
2019-02-18T14:00:38.916Z,1008.42
2019-02-18T14:01:38.638Z,1008.43
2019-02-18T14:02:38.713Z,1008.40
2019-02-18T14:03:38.602Z,1008.39
2019-02-18T14:04:38.585Z,1008.49
2019-02-18T14:05:38.586Z,1008.46
2019-02-18T14:06:38.581Z,1008.47
2019-02-18T14:07:38.553Z,1008.47
2019-02-18T14:08:38.582Z,1008.45
2019-02-18T14:09:38.526Z,1008.45
2019-02-18T14:10:38.517Z,1008.50
2019-02-18T14:11:38.518Z,1008.44
2019-02-18T14:12:38.490Z,1008.40
2019-02-18T14:13:38.504Z,1008.40
2019-02-18T14:14:38.533Z,1008.44
2019-02-18T14:15:38.489Z,1008.43
2019-02-18T14:16:38.480Z,1008.42
2019-02-18T14:17:38.468Z,1008.38
2019-02-18T14:18:38.423Z,1008.38
2019-02-18T14:19:38.421Z,1008.37
2019-02-18T14:20:38.459Z,1008.40
2019-02-18T14:21:38.401Z,1008.42
2019-02-18T14:22:38.387Z,1008.33
2019-02-18T14:23:38.392Z,1008.32
2019-02-18T14:24:38.416Z,1008.32
2019-02-18T14:25:38.350Z,1008.36
2019-02-18T14:26:38.379Z,1008.35
2019-02-18T14:27:38.333Z,1008.39
2019-02-18T14:28:38.360Z,1008.42
2019-02-18T14:29:38.308Z,1008.36
2019-02-18T14:30:38.311Z,1008.29
2019-02-18T14:31:38.333Z,1008.31
2019-02-18T14:32:38.320Z,1008.30
2019-02-18T14:33:38.284Z,1008.33
2019-02-18T14:34:38.250Z,1008.32
2019-02-18T14:35:38.237Z,1008.33
2019-02-18T14:36:38.247Z,1008.25
2019-02-18T14:37:38.339Z,1008.33
2019-02-18T14:38:38.201Z,1008.29
2019-02-18T14:39:38.193Z,1008.25
2019-02-18T14:40:38.182Z,1008.33
2019-02-18T14:41:38.203Z,1008.33
2019-02-18T14:42:38.213Z,1008.34
2019-02-18T14:43:38.164Z,1008.37
2019-02-18T14:44:38.148Z,1008.41
2019-02-18T14:45:38.125Z,1008.36
2019-02-18T14:46:38.120Z,1008.34
2019-02-18T14:47:38.172Z,1008.34
2019-02-18T14:48:38.240Z,1008.30
2019-02-18T14:49:38.122Z,1008.35
2019-02-18T14:50:38.075Z,1008.36
2019-02-18T14:51:38.057Z,1008.29
2019-02-18T14:52:38.097Z,1008.28
2019-02-18T14:53:38.060Z,1008.25
2019-02-18T14:54:38.063Z,1008.32
2019-02-18T14:55:38.030Z,1008.26
2019-02-18T14:56:38.007Z,1008.26
2019-02-18T14:57:38.063Z,1008.24
2019-02-18T14:58:38.041Z,1008.26
2019-02-18T14:59:37.986Z,1008.25
2019-02-18T15:00:37.966Z,1008.26
2019-02-18T15:01:37.953Z,1008.24
2019-02-18T15:02:37.940Z,1008.25
2019-02-18T15:03:37.944Z,1008.24
2019-02-18T15:04:37.965Z,1008.25
2019-02-18T15:05:37.908Z,1008.28
2019-02-18T15:06:37.905Z,1008.25
2019-02-18T15:07:37.936Z,1008.28
2019-02-18T15:08:37.885Z,1008.28
2019-02-18T15:09:37.868Z,1008.27
2019-02-18T15:10:37.862Z,1008.25
2019-02-18T15:11:37.892Z,1008.20
2019-02-18T15:12:37.839Z,1008.20
2019-02-18T15:13:37.824Z,1008.26
2019-02-18T15:14:37.816Z,1008.27
2019-02-18T15:15:37.795Z,1008.12
2019-02-18T15:16:37.789Z,1008.26
2019-02-18T15:17:37.828Z,1008.15
2019-02-18T15:18:37.763Z,1008.16
2019-02-18T15:19:37.811Z,1008.14
2019-02-18T15:20:37.755Z,1008.15
2019-02-18T15:21:37.743Z,1008.21
2019-02-18T15:22:37.760Z,1008.16
2019-02-18T15:23:37.715Z,1008.13
2019-02-18T15:24:37.702Z,1008.12
2019-02-18T15:25:37.695Z,1008.13
2019-02-18T15:26:37.688Z,1008.06
2019-02-18T15:27:37.720Z,1008.02
2019-02-18T15:28:37.697Z,1008.26
2019-02-18T15:29:37.641Z,1008.38
2019-02-18T15:30:37.636Z,1008.21
2019-02-18T15:31:37.624Z,1008.15
2019-02-18T15:32:37.617Z,1008.17
2019-02-18T15:33:37.641Z,1008.18
2019-02-18T15:34:37.613Z,1008.19
2019-02-18T15:35:38.177Z,1008.19
2019-02-18T15:36:37.571Z,1008.16
2019-02-18T15:37:37.887Z,1008.20
2019-02-18T15:38:37.543Z,1008.15
2019-02-18T15:39:37.537Z,1008.01
2019-02-18T15:40:37.533Z,1008.17
2019-02-18T15:41:37.514Z,1008.25
2019-02-18T15:42:42.343Z,1008.34
2019-02-18T15:43:38.545Z,1008.31
2019-02-18T15:44:37.494Z,1008.32
2019-02-18T15:45:37.510Z,1008.28
2019-02-18T15:46:37.466Z,1008.31
2019-02-18T15:47:37.490Z,1008.32
2019-02-18T15:48:37.439Z,1008.30
2019-02-18T15:49:37.428Z,1008.29
2019-02-18T15:50:37.422Z,1008.30
2019-02-18T15:51:37.413Z,1008.30
2019-02-18T15:52:37.470Z,1008.29
2019-02-18T15:53:37.725Z,1008.31
2019-02-18T15:54:37.368Z,1008.34
2019-02-18T15:55:37.375Z,1008.25
2019-02-18T15:56:37.347Z,1008.34
2019-02-18T15:57:37.342Z,1008.36
2019-02-18T15:58:37.384Z,1008.35
2019-02-18T15:59:37.317Z,1008.40
2019-02-18T16:00:37.310Z,1008.39
2019-02-18T16:01:37.293Z,1008.33
2019-02-18T16:02:37.286Z,1008.29
2019-02-18T16:03:37.464Z,1008.39
2019-02-18T16:04:37.265Z,1008.37
2019-02-18T16:05:37.253Z,1008.32
2019-02-18T16:06:37.246Z,1008.36
2019-02-18T16:07:37.255Z,1008.40
2019-02-18T16:08:37.216Z,1008.35
2019-02-18T16:09:37.253Z,1008.33
2019-02-18T16:10:37.241Z,1008.30
2019-02-18T16:11:38.853Z,1008.33
2019-02-18T16:12:37.182Z,1008.33
2019-02-18T16:13:37.164Z,1008.33
2019-02-18T16:14:37.172Z,1008.31
2019-02-18T16:15:37.148Z,1008.38
2019-02-18T16:16:37.199Z,1008.37
2019-02-18T16:17:37.118Z,1008.39
2019-02-18T16:18:37.158Z,1008.37
2019-02-18T16:19:37.098Z,1008.35
2019-02-18T16:20:37.081Z,1008.37
2019-02-18T16:21:37.077Z,1008.37
2019-02-18T16:22:37.065Z,1008.45
2019-02-18T16:23:37.050Z,1008.39
2019-02-18T16:24:37.093Z,1008.44
2019-02-18T16:25:37.026Z,1008.48
2019-02-18T16:26:37.038Z,1008.41
2019-02-18T16:27:37.004Z,1008.41
2019-02-18T16:28:37.042Z,1008.37
2019-02-18T16:29:37.084Z,1008.40
2019-02-18T16:30:36.975Z,1008.41
2019-02-18T16:31:36.965Z,1008.37
2019-02-18T16:32:36.986Z,1008.37
2019-02-18T16:33:36.957Z,1008.38
2019-02-18T16:34:36.930Z,1008.40
2019-02-18T16:35:37.368Z,1008.37
2019-02-18T16:36:37.260Z,1008.43
2019-02-18T16:37:36.891Z,1008.43
2019-02-18T16:38:36.884Z,1008.43
2019-02-18T16:39:36.882Z,1008.45
2019-02-18T16:40:36.864Z,1008.47
2019-02-18T16:41:36.895Z,1008.48
2019-02-18T16:42:36.846Z,1008.47
2019-02-18T16:43:36.835Z,1008.42
2019-02-18T16:44:36.820Z,1008.45
2019-02-18T16:45:36.822Z,1008.40
2019-02-18T16:46:36.796Z,1008.40
2019-02-18T16:47:36.830Z,1008.39
2019-02-18T16:48:36.821Z,1008.41
2019-02-18T16:49:36.760Z,1008.42
2019-02-18T16:50:36.759Z,1008.48
2019-02-18T16:51:36.739Z,1008.49
2019-02-18T16:52:36.766Z,1008.46
2019-02-18T16:53:36.711Z,1008.44
2019-02-18T16:54:36.698Z,1008.40
2019-02-18T16:55:36.701Z,1008.46
2019-02-18T16:56:36.684Z,1008.45
2019-02-18T16:57:38.177Z,1008.47
2019-02-18T16:58:36.717Z,1008.48
2019-02-18T16:59:36.655Z,1008.45
2019-02-18T17:00:36.641Z,1008.48
2019-02-18T17:01:36.621Z,1008.45
2019-02-18T17:02:36.628Z,1008.46
2019-02-18T17:03:36.605Z,1008.50
2019-02-18T17:04:36.627Z,1008.52
2019-02-18T17:05:36.576Z,1008.50
2019-02-18T17:06:36.565Z,1008.54
2019-02-18T17:07:36.569Z,1008.53
2019-02-18T17:08:36.595Z,1008.59
2019-02-18T17:09:36.543Z,1008.55
2019-02-18T17:10:36.526Z,1008.59
2019-02-18T17:11:36.510Z,1008.60
2019-02-18T17:12:36.498Z,1008.58
2019-02-18T17:13:36.486Z,1008.58
2019-02-18T17:14:36.524Z,1008.60
2019-02-18T17:15:36.463Z,1008.63
2019-02-18T17:16:36.462Z,1008.62
2019-02-18T17:17:36.439Z,1008.59
2019-02-18T17:18:36.477Z,1008.65
2019-02-18T17:19:36.427Z,1008.62
2019-02-18T17:20:36.471Z,1008.67
2019-02-18T17:21:36.403Z,1008.66
2019-02-18T17:22:36.385Z,1008.69
2019-02-18T17:23:36.379Z,1008.66
2019-02-18T17:24:36.408Z,1008.67
2019-02-18T17:25:36.351Z,1008.63
2019-02-18T17:26:36.352Z,1008.68
2019-02-18T17:27:36.332Z,1008.67
2019-02-18T17:28:36.321Z,1008.67
2019-02-18T17:29:36.309Z,1008.68
2019-02-18T17:30:36.340Z,1008.68
2019-02-18T17:31:36.290Z,1008.66
2019-02-18T17:32:36.275Z,1008.67
2019-02-18T17:33:36.269Z,1008.66
2019-02-18T17:34:36.250Z,1008.70
2019-02-18T17:35:36.240Z,1008.66
2019-02-18T17:36:36.294Z,1008.68
2019-02-18T17:37:36.246Z,1008.68
2019-02-18T17:38:36.207Z,1008.66
2019-02-18T17:39:36.195Z,1008.66
2019-02-18T17:40:36.194Z,1008.65
2019-02-18T17:41:36.210Z,1008.59
2019-02-18T17:42:36.359Z,1008.65
2019-02-18T17:43:36.160Z,1008.62
2019-02-18T17:44:36.142Z,1008.65
2019-02-18T17:45:36.138Z,1008.65
2019-02-18T17:46:36.124Z,1008.66
2019-02-18T17:47:36.138Z,1008.67
2019-02-18T17:48:36.150Z,1008.70
2019-02-18T17:49:36.083Z,1008.68
2019-02-18T17:50:36.120Z,1008.68
2019-02-18T17:51:36.064Z,1008.67
2019-02-18T17:52:36.114Z,1008.66
2019-02-18T17:53:36.044Z,1008.65
2019-02-18T17:54:36.028Z,1008.68
2019-02-18T17:55:36.020Z,1008.63
2019-02-18T17:56:36.004Z,1008.59
2019-02-18T17:57:35.995Z,1008.67
2019-02-18T17:58:36.023Z,1008.62
2019-02-18T17:59:35.977Z,1008.66
2019-02-18T18:00:36.004Z,1008.68
2019-02-18T18:01:35.956Z,1008.70
2019-02-18T18:02:35.943Z,1008.68
2019-02-18T18:03:35.975Z,1008.70
2019-02-18T18:04:35.920Z,1008.70
2019-02-18T18:05:35.915Z,1008.71
2019-02-18T18:06:35.894Z,1008.72
2019-02-18T18:07:35.894Z,1008.68
2019-02-18T18:08:35.920Z,1008.70
2019-02-18T18:09:35.860Z,1008.69
2019-02-18T18:10:35.847Z,1008.73
2019-02-18T18:11:35.882Z,1008.71
2019-02-18T18:12:35.831Z,1008.70
2019-02-18T18:13:35.819Z,1008.79
2019-02-18T18:14:35.853Z,1008.76
2019-02-18T18:15:35.789Z,1008.75
2019-02-18T18:16:35.785Z,1008.73
2019-02-18T18:17:35.765Z,1008.76
2019-02-18T18:18:35.818Z,1008.73
2019-02-18T18:19:35.741Z,1008.74
2019-02-18T18:20:35.731Z,1008.74
2019-02-18T18:21:35.720Z,1008.72
2019-02-18T18:22:35.709Z,1008.75
2019-02-18T18:23:35.700Z,1008.75
2019-02-18T18:24:35.730Z,1008.72
2019-02-18T18:25:35.677Z,1008.70
2019-02-18T18:26:35.665Z,1008.71
2019-02-18T18:27:35.658Z,1008.69
2019-02-18T18:28:35.701Z,1008.70
2019-02-18T18:29:35.631Z,1008.69
2019-02-18T18:30:35.621Z,1008.69
2019-02-18T18:31:35.660Z,1008.72
2019-02-18T18:32:35.595Z,1008.67
2019-02-18T18:33:35.584Z,1008.72
2019-02-18T18:34:35.571Z,1008.68
2019-02-18T18:35:35.751Z,1008.75
2019-02-18T18:36:35.552Z,1008.73
2019-02-18T18:37:35.547Z,1008.71
2019-02-18T18:38:35.534Z,1008.71
2019-02-18T18:39:35.517Z,1008.69
2019-02-18T18:40:35.509Z,1008.72
2019-02-18T18:41:35.537Z,1008.78
2019-02-18T18:42:35.482Z,1008.74
2019-02-18T18:43:35.471Z,1008.70
2019-02-18T18:44:35.504Z,1008.67
2019-02-18T18:45:35.446Z,1008.68
2019-02-18T18:46:35.442Z,1008.63
2019-02-18T18:47:35.427Z,1008.66
2019-02-18T18:48:35.603Z,1008.62
2019-02-18T18:49:35.405Z,1008.62
2019-02-18T18:50:35.394Z,1008.67
2019-02-18T18:51:35.382Z,1008.62
2019-02-18T18:52:35.393Z,1008.64
2019-02-18T18:53:35.356Z,1008.64
2019-02-18T18:54:35.405Z,1008.61
2019-02-18T18:55:35.335Z,1008.62
2019-02-18T18:56:35.341Z,1008.62
2019-02-18T18:57:35.309Z,1008.64
2019-02-18T18:58:35.303Z,1008.68
2019-02-18T18:59:35.295Z,1008.67
2019-02-18T19:00:35.329Z,1008.68
2019-02-18T19:01:35.267Z,1008.69
2019-02-18T19:02:35.257Z,1008.67
2019-02-18T19:03:35.445Z,1008.66
2019-02-18T19:04:35.234Z,1008.68
2019-02-18T19:05:35.229Z,1008.69
2019-02-18T19:06:35.214Z,1008.64
2019-02-18T19:07:35.199Z,1008.65
2019-02-18T19:08:35.196Z,1008.66
2019-02-18T19:09:35.381Z,1008.65
2019-02-18T19:10:35.161Z,1008.65
2019-02-18T19:11:35.158Z,1008.58
2019-02-18T19:12:35.139Z,1008.63
2019-02-18T19:13:41.958Z,1008.62
2019-02-18T19:14:36.176Z,1008.60
2019-02-18T19:15:35.174Z,1008.59
2019-02-18T19:16:35.094Z,1008.61
2019-02-18T19:17:35.089Z,1008.62
2019-02-18T19:18:35.138Z,1008.61
2019-02-18T19:19:35.061Z,1008.63
2019-02-18T19:20:35.054Z,1008.64
2019-02-18T19:21:35.037Z,1008.58
2019-02-18T19:22:35.032Z,1008.60
2019-02-18T19:23:35.149Z,1008.62
2019-02-18T19:24:35.057Z,1008.65
2019-02-18T19:25:35.000Z,1008.68
2019-02-18T19:26:35.005Z,1008.70
2019-02-18T19:27:35.122Z,1008.68
2019-02-18T19:28:34.968Z,1008.67
2019-02-18T19:29:34.993Z,1008.71
2019-02-18T19:30:34.940Z,1008.70
2019-02-18T19:31:34.930Z,1008.73
2019-02-18T19:32:34.919Z,1008.73
2019-02-18T19:33:34.952Z,1008.73
2019-02-18T19:34:34.896Z,1008.71
2019-02-18T19:35:34.920Z,1008.75
2019-02-18T19:36:34.874Z,1008.78
2019-02-18T19:37:34.856Z,1008.79
2019-02-18T19:38:34.847Z,1008.79
2019-02-18T19:39:34.883Z,1008.75
2019-02-18T19:40:34.821Z,1008.77
2019-02-18T19:41:34.810Z,1008.73
2019-02-18T19:42:34.804Z,1008.72
2019-02-18T19:43:34.784Z,1008.76
2019-02-18T19:44:34.790Z,1008.70
2019-02-18T19:45:34.815Z,1008.76
2019-02-18T19:46:34.800Z,1008.78
2019-02-18T19:47:34.745Z,1008.79
2019-02-18T19:48:34.756Z,1008.80
2019-02-18T19:49:34.731Z,1008.82
2019-02-18T19:50:34.748Z,1008.80
2019-02-18T19:51:34.696Z,1008.81
2019-02-18T19:52:34.734Z,1008.85
2019-02-18T19:53:34.675Z,1008.88
2019-02-18T19:54:34.675Z,1008.85
2019-02-18T19:55:34.659Z,1008.83
2019-02-18T19:56:34.639Z,1008.83
2019-02-18T19:57:34.626Z,1008.84
2019-02-18T19:58:34.656Z,1008.87
2019-02-18T19:59:34.804Z,1008.90
2019-02-18T20:00:34.596Z,1008.88
2019-02-18T20:01:34.586Z,1008.86
2019-02-18T20:02:34.569Z,1008.92
2019-02-18T20:03:34.558Z,1008.85
2019-02-18T20:04:34.546Z,1008.87
2019-02-18T20:05:34.576Z,1008.93
2019-02-18T20:06:34.527Z,1008.93
2019-02-18T20:07:34.548Z,1008.91
2019-02-18T20:08:34.502Z,1008.91
2019-02-18T20:09:34.492Z,1008.99
2019-02-18T20:10:34.526Z,1008.97
2019-02-18T20:11:34.509Z,1008.97
2019-02-18T20:12:34.458Z,1008.99
2019-02-18T20:13:34.444Z,1008.99
2019-02-18T20:14:34.503Z,1008.99
2019-02-18T20:15:34.424Z,1008.93
2019-02-18T20:16:34.418Z,1008.97
2019-02-18T20:17:34.399Z,1009.03
2019-02-18T20:18:34.387Z,1008.94
2019-02-18T20:19:34.379Z,1009.00
2019-02-18T20:20:34.411Z,1008.95
2019-02-18T20:21:34.368Z,1008.96
2019-02-18T20:22:34.358Z,1008.96
2019-02-18T20:23:34.329Z,1008.97
2019-02-18T20:24:34.319Z,1008.98
2019-02-18T20:25:34.306Z,1009.01
2019-02-18T20:26:34.336Z,1008.98
2019-02-18T20:27:34.284Z,1008.96
2019-02-18T20:28:34.276Z,1008.93
2019-02-18T20:29:34.262Z,1008.92
2019-02-18T20:30:34.293Z,1008.96
2019-02-18T20:31:34.238Z,1008.88
2019-02-18T20:32:34.273Z,1008.94
2019-02-18T20:33:34.221Z,1008.96
2019-02-18T20:34:34.214Z,1008.94
2019-02-18T20:35:34.194Z,1008.94
2019-02-18T20:36:34.183Z,1008.96
2019-02-18T20:37:34.177Z,1008.97
2019-02-18T20:38:34.230Z,1008.97
2019-02-18T20:39:34.149Z,1008.98
2019-02-18T20:40:34.142Z,1008.99
2019-02-18T20:41:34.184Z,1009.02
2019-02-18T20:42:34.113Z,1008.99
2019-02-18T20:43:34.103Z,1009.10
2019-02-18T20:44:34.120Z,1009.08
2019-02-18T20:45:34.080Z,1009.05
2019-02-18T20:46:34.070Z,1009.03
2019-02-18T20:47:34.117Z,1009.07
2019-02-18T20:48:34.047Z,1009.07
2019-02-18T20:49:34.116Z,1009.09
2019-02-18T20:50:34.026Z,1009.09
2019-02-18T20:51:34.013Z,1009.11
2019-02-18T20:52:34.004Z,1009.07
2019-02-18T20:53:34.034Z,1009.11
2019-02-18T20:54:33.977Z,1009.09
2019-02-18T20:55:33.969Z,1009.05
2019-02-18T20:56:33.955Z,1009.09
2019-02-18T20:57:33.943Z,1009.10
2019-02-18T20:58:33.936Z,1009.10
2019-02-18T20:59:33.963Z,1009.07
2019-02-18T21:00:33.909Z,1009.10
2019-02-18T21:01:33.942Z,1009.12
2019-02-18T21:02:33.888Z,1009.09
2019-02-18T21:03:33.882Z,1009.09
2019-02-18T21:04:33.869Z,1009.06
2019-02-18T21:05:33.856Z,1009.07
2019-02-18T21:06:34.048Z,1008.98
2019-02-18T21:07:33.831Z,1009.04
2019-02-18T21:08:33.818Z,1009.05
2019-02-18T21:09:33.808Z,1008.96
2019-02-18T21:10:33.798Z,1009.01
2019-02-18T21:11:33.785Z,1008.99
2019-02-18T21:12:33.843Z,1008.95
2019-02-18T21:13:33.764Z,1008.95
2019-02-18T21:14:33.873Z,1008.93
2019-02-18T21:15:33.800Z,1008.93
2019-02-18T21:16:33.753Z,1008.95
2019-02-18T21:17:33.731Z,1008.94
2019-02-18T21:18:33.709Z,1008.99
2019-02-18T21:19:33.721Z,1009.00
2019-02-18T21:20:33.739Z,1009.07
2019-02-18T21:21:33.671Z,1009.07
2019-02-18T21:22:33.660Z,1009.06
2019-02-18T21:23:33.656Z,1009.05
2019-02-18T21:24:33.658Z,1009.04
2019-02-18T21:25:33.629Z,1009.06
2019-02-18T21:26:33.657Z,1009.00
2019-02-18T21:27:33.602Z,1009.02
2019-02-18T21:28:33.594Z,1009.00
2019-02-18T21:29:33.580Z,1008.99
2019-02-18T21:30:33.872Z,1009.02
2019-02-18T21:31:33.561Z,1009.00
2019-02-18T21:32:33.546Z,1009.04
2019-02-18T21:33:33.535Z,1009.04
2019-02-18T21:34:33.525Z,1009.04
2019-02-18T21:35:33.517Z,1009.05
2019-02-18T21:36:33.545Z,1009.06
2019-02-18T21:37:33.493Z,1009.06
2019-02-18T21:38:33.478Z,1009.03
2019-02-18T21:39:33.468Z,1009.05
2019-02-18T21:40:33.456Z,1009.08
2019-02-18T21:41:33.444Z,1009.09
2019-02-18T21:42:33.481Z,1009.08